Time;durP1;ratioP1;P1;durP2;ratioP2;P2;SDS_P1;SDS_P2;PMS_P1;PMS_P2;Temp;Humidity;BMP_temperature;BMP_pressure;BME280_temperature;BME280_humidity;BME280_pressure;Samples;Min_cycle;Max_cycle;Signal;HPM_P1;HPM_P2
2021/04/16 00:01:34;;;;;;;10.63;4.80;;;;;;;;;;6207509;23;20235;-88
2021/04/16 00:04:40;;;;;;;11.40;5.50;;;;;;;;;;6208301;23;20167;-89
2021/04/16 00:07:44;;;;;;;14.53;5.57;;;;;;;;;;6208601;23;20183;-89
2021/04/16 00:10:50;;;;;;;10.37;5.40;;;;;;;;;;6207972;23;20222;-90
2021/04/16 00:13:54;;;;;;;10.83;5.50;;;;;;;;;;6207545;23;20210;-89
2021/04/16 00:16:59;;;;;;;12.13;5.47;;;;;;;;;;6206512;23;20212;-91
2021/04/16 00:20:05;;;;;;;13.13;5.63;;;;;;;;;;6206978;23;20178;-89
2021/04/16 00:23:10;;;;;;;11.13;5.00;;;;;;;;;;6206770;23;20194;-90
2021/04/16 00:26:15;;;;;;;9.13;4.73;;;;;;;;;;6206443;23;20195;-89
2021/04/16 00:29:19;;;;;;;10.30;5.23;;;;;;;;;;6205683;23;20178;-90
2021/04/16 00:32:24;;;;;;;12.03;5.13;;;;;;;;;;6205223;23;20238;-88
2021/04/16 00:35:29;;;;;;;8.10;4.53;;;;;;;;;;6203922;23;20194;-90
2021/04/16 00:38:33;;;;;;;10.37;5.20;;;;;;;;;;6205210;23;20200;-89
2021/04/16 00:41:38;;;;;;;11.33;4.97;;;;;;;;;;6205676;23;20171;-90
2021/04/16 00:44:42;;;;;;;11.27;5.30;;;;;;;;;;6204418;23;20171;-90
2021/04/16 00:47:47;;;;;;;10.53;5.30;;;;;;;;;;6203148;23;20239;-89
2021/04/16 00:50:54;;;;;;;14.73;5.63;;;;;;;;;;6205032;23;20242;-90
2021/04/16 00:53:59;;;;;;;13.37;5.10;;;;;;;;;;6205435;23;20170;-89
2021/04/16 00:57:04;;;;;;;9.93;4.90;;;;;;;;;;6206553;23;20183;-91
2021/04/16 01:00:13;;;;;;;12.43;5.03;;;;;;;;;;6207100;23;20247;-89
2021/04/16 01:03:17;;;;;;;8.13;4.40;;;;;;;;;;6205965;23;20525;-89
2021/04/16 01:06:24;;;;;;;12.17;5.00;;;;;;;;;;6207873;23;20171;-89
2021/04/16 01:09:29;;;;;;;9.27;5.27;;;;;;;;;;6207069;23;20175;-90
2021/04/16 01:12:34;;;;;;;10.03;4.90;;;;;;;;;;6206097;23;20191;-89
2021/04/16 01:15:40;;;;;;;8.97;4.90;;;;;;;;;;6207978;23;20167;-90
2021/04/16 01:18:46;;;;;;;10.33;4.90;;;;;;;;;;6207512;23;20623;-91
2021/04/16 01:21:54;;;;;;;9.43;4.60;;;;;;;;;;6208898;23;20171;-90
2021/04/16 01:25:01;;;;;;;7.53;4.50;;;;;;;;;;6209714;23;20170;-89
2021/04/16 01:28:06;;;;;;;9.13;4.43;;;;;;;;;;6208811;23;20239;-89
2021/04/16 01:31:11;;;;;;;10.37;4.60;;;;;;;;;;6210836;23;20232;-89
2021/04/16 01:34:16;;;;;;;9.00;4.40;;;;;;;;;;6210059;23;20248;-89
2021/04/16 01:37:21;;;;;;;7.50;4.03;;;;;;;;;;6209086;23;20171;-90
2021/04/16 01:40:27;;;;;;;7.40;4.07;;;;;;;;;;6209461;23;20210;-89
2021/04/16 01:43:32;;;;;;;8.90;4.07;;;;;;;;;;6210132;22;20158;-89
2021/04/16 01:46:51;;;;;;;7.93;4.43;;;;;;;;;;6209216;23;20171;-90
2021/04/16 01:49:55;;;;;;;8.80;4.30;;;;;;;;;;6208838;23;20227;-89
2021/04/16 01:53:00;;;;;;;8.43;4.57;;;;;;;;;;6208785;23;20171;-89
2021/04/16 01:56:06;;;;;;;8.43;3.93;;;;;;;;;;6207955;22;20163;-89
2021/04/16 01:59:11;;;;;;;10.53;4.33;;;;;;;;;;6208487;22;20166;-90
2021/04/16 02:02:18;;;;;;;12.87;4.63;;;;;;;;;;6209232;23;20210;-89
2021/04/16 02:05:23;;;;;;;8.57;4.53;;;;;;;;;;6208724;23;20227;-89
2021/04/16 02:08:28;;;;;;;9.17;4.43;;;;;;;;;;6207880;23;20190;-89
2021/04/16 02:11:33;;;;;;;15.03;4.90;;;;;;;;;;6210407;23;20191;-90
2021/04/16 02:14:38;;;;;;;9.27;4.63;;;;;;;;;;6210646;23;20175;-89
2021/04/16 02:17:42;;;;;;;9.60;4.93;;;;;;;;;;6210518;23;20174;-89
2021/04/16 02:20:46;;;;;;;9.77;4.90;;;;;;;;;;6210674;23;20187;-88
2021/04/16 02:23:50;;;;;;;12.00;5.07;;;;;;;;;;6210291;23;20660;-90
2021/04/16 02:26:56;;;;;;;9.10;4.80;;;;;;;;;;6209072;23;20167;-89
2021/04/16 02:30:00;;;;;;;8.53;4.43;;;;;;;;;;6210063;23;20216;-89
2021/04/16 02:33:05;;;;;;;14.27;4.93;;;;;;;;;;6209881;22;20175;-89
2021/04/16 02:36:10;;;;;;;14.27;4.77;;;;;;;;;;6209341;23;20220;-89
2021/04/16 02:39:15;;;;;;;8.30;4.77;;;;;;;;;;6209442;23;20213;-90
2021/04/16 02:42:20;;;;;;;10.50;5.50;;;;;;;;;;6208614;23;20228;-89
2021/04/16 02:45:25;;;;;;;11.50;4.63;;;;;;;;;;6208893;23;20242;-90
2021/04/16 02:48:29;;;;;;;11.17;5.20;;;;;;;;;;6209536;23;20171;-90
2021/04/16 02:51:34;;;;;;;10.07;4.80;;;;;;;;;;6208965;23;20283;-90
2021/04/16 02:54:39;;;;;;;13.63;5.93;;;;;;;;;;6208441;23;20175;-89
2021/04/16 02:57:44;;;;;;;15.67;5.90;;;;;;;;;;6209256;23;20198;-89
2021/04/16 03:00:48;;;;;;;17.63;6.60;;;;;;;;;;6209666;23;20193;-89
2021/04/16 03:03:53;;;;;;;27.90;8.60;;;;;;;;;;6209608;23;20171;-89
2021/04/16 03:06:57;;;;;;;24.97;8.10;;;;;;;;;;6226498;23;20218;-89
2021/04/16 03:10:02;;;;;;;25.80;8.27;;;;;;;;;;6208832;23;20191;-90
2021/04/16 03:13:07;;;;;;;19.77;6.83;;;;;;;;;;6209929;23;20552;-90
2021/04/16 03:16:12;;;;;;;29.47;7.53;;;;;;;;;;6210496;23;20172;-89
2021/04/16 03:19:16;;;;;;;18.30;7.40;;;;;;;;;;6209823;23;20597;-89
2021/04/16 03:22:20;;;;;;;26.37;8.80;;;;;;;;;;6209881;23;20171;-89
2021/04/16 03:25:25;;;;;;;26.97;8.03;;;;;;;;;;6209069;23;20557;-89
2021/04/16 03:28:30;;;;;;;33.63;10.23;;;;;;;;;;6208899;23;20187;-88
2021/04/16 03:31:35;;;;;;;32.80;9.73;;;;;;;;;;6207754;23;20219;-89
2021/04/16 03:34:39;;;;;;;27.07;8.60;;;;;;;;;;6208150;23;20224;-89
2021/04/16 03:37:44;;;;;;;19.70;7.93;;;;;;;;;;6207829;23;20215;-90
2021/04/16 03:40:49;;;;;;;18.23;7.30;;;;;;;;;;6207015;23;20556;-88
2021/04/16 03:43:54;;;;;;;17.77;7.07;;;;;;;;;;6208101;23;20170;-89
2021/04/16 03:46:58;;;;;;;14.93;6.73;;;;;;;;;;6207767;23;20171;-89
2021/04/16 03:50:04;;;;;;;15.73;6.07;;;;;;;;;;6210216;23;20175;-88
2021/04/16 03:53:08;;;;;;;12.87;6.23;;;;;;;;;;6208487;23;20214;-89
2021/04/16 03:56:14;;;;;;;13.90;6.07;;;;;;;;;;6208396;23;20159;-88
2021/04/16 03:59:21;;;;;;;12.60;5.70;;;;;;;;;;6209217;23;20266;-90
2021/04/16 04:02:25;;;;;;;16.30;6.30;;;;;;;;;;6209892;23;20226;-89
2021/04/16 04:05:30;;;;;;;12.77;6.10;;;;;;;;;;6207694;23;20254;-89
2021/04/16 07:07:36;;;;;;;10.30;7.00;;;;;;;;;;6208758;22;20269;-91
2021/04/16 07:10:42;;;;;;;18.67;7.65;;;;;;;;;;6213705;23;20234;-90
2021/04/16 07:13:48;;;;;;;10.93;7.22;;;;;;;;;;6214611;23;20501;-90
2021/04/16 07:16:53;;;;;;;17.05;7.63;;;;;;;;;;6232281;22;20227;-90
2021/04/16 07:19:59;;;;;;;15.73;7.85;;;;;;;;;;6214483;23;20212;-90
2021/04/16 07:23:06;;;;;;;14.38;7.50;;;;;;;;;;6216235;22;20170;-91
2021/04/16 07:26:15;;;;;;;11.18;7.18;;;;;;;;;;6214288;23;20175;-89
2021/04/16 07:29:36;;;;;;;11.70;7.25;;;;;;;;;;6213929;23;20499;-91
2021/04/16 07:32:43;;;;;;;10.80;7.55;;;;;;;;;;6213140;23;20195;-92
2021/04/16 07:35:48;;;;;;;15.65;7.45;;;;;;;;;;6215419;22;20643;-91
2021/04/16 07:39:03;;;;;;;13.55;7.35;;;;;;;;;;6219019;22;20167;-93
2021/04/16 07:42:21;;;;;;;12.90;7.28;;;;;;;;;;6218237;23;20155;-92
2021/04/16 07:45:41;;;;;;;13.10;6.82;;;;;;;;;;6216829;23;20151;-89
2021/04/16 07:48:46;;;;;;;14.05;7.60;;;;;;;;;;6219540;22;20166;-91
2021/04/16 07:51:55;;;;;;;12.35;6.93;;;;;;;;;;6219199;23;20194;-91
2021/04/16 07:55:18;;;;;;;10.35;6.55;;;;;;;;;;6218534;23;20210;-90
2021/04/16 07:58:27;;;;;;;10.10;6.17;;;;;;;;;;6217611;23;20215;-91
2021/04/16 08:01:34;;;;;;;12.07;6.83;;;;;;;;;;6216831;22;20229;-92
2021/04/16 12:40:16;;;;;;;4.45;2.90;;;;;;;;;;6212876;23;20166;-88
2021/04/16 12:43:22;;;;;;;4.70;2.45;;;;;;;;;;6211078;23;20194;-89
2021/04/16 12:46:31;;;;;;;4.40;2.53;;;;;;;;;;6212224;23;20189;-90
2021/04/16 12:49:36;;;;;;;3.53;2.55;;;;;;;;;;6210796;23;20203;-89
2021/04/16 12:52:40;;;;;;;4.20;2.72;;;;;;;;;;6211639;23;20210;-89
2021/04/16 12:55:48;;;;;;;3.90;2.88;;;;;;;;;;6210673;23;20240;-89
2021/04/16 12:59:01;;;;;;;4.28;2.90;;;;;;;;;;6210719;23;20415;-89
2021/04/16 13:02:08;;;;;;;5.67;3.43;;;;;;;;;;6212344;23;20236;-90
2021/04/16 13:05:14;;;;;;;6.18;3.83;;;;;;;;;;6210538;23;20194;-91
2021/04/16 13:08:19;;;;;;;4.90;2.90;;;;;;;;;;6209654;23;20189;-90
2021/04/16 13:11:23;;;;;;;4.93;3.22;;;;;;;;;;6209846;23;20199;-90
2021/04/16 13:14:28;;;;;;;10.68;3.33;;;;;;;;;;6213683;23;20235;-90
2021/04/16 13:17:40;;;;;;;4.20;3.10;;;;;;;;;;6213072;23;20170;-91
2021/04/16 13:20:48;;;;;;;8.70;3.78;;;;;;;;;;6213818;23;20220;-92
2021/04/16 13:23:52;;;;;;;6.40;3.35;;;;;;;;;;6213533;23;20214;-91
2021/04/16 13:26:57;;;;;;;5.65;3.30;;;;;;;;;;6214027;23;20216;-91
2021/04/16 13:30:03;;;;;;;5.03;3.63;;;;;;;;;;6212849;22;20156;-90
2021/04/16 13:33:12;;;;;;;8.38;3.40;;;;;;;;;;6212936;22;20230;-90
2021/04/16 13:36:19;;;;;;;7.60;3.83;;;;;;;;;;6218852;23;20167;-90
2021/04/16 13:39:24;;;;;;;5.95;3.83;;;;;;;;;;6214478;23;20199;-91
2021/04/16 13:42:29;;;;;;;6.60;3.73;;;;;;;;;;6215803;23;20638;-91
2021/04/16 13:45:34;;;;;;;7.27;3.47;;;;;;;;;;6215774;23;20263;-93
2021/04/16 13:48:40;;;;;;;7.33;3.90;;;;;;;;;;6218157;22;20182;-90
2021/04/16 13:51:45;;;;;;;7.00;3.90;;;;;;;;;;6219576;23;20619;-90
2021/04/16 13:54:50;;;;;;;9.63;4.47;;;;;;;;;;6219439;22;20171;-90
2021/04/16 13:57:59;;;;;;;6.47;3.88;;;;;;;;;;6219525;23;20200;-91
2021/04/16 14:01:06;;;;;;;7.40;4.40;;;;;;;;;;6217965;23;20173;-89
2021/04/16 14:04:29;;;;;;;13.10;4.17;;;;;;;;;;6218458;23;20174;-90
2021/04/16 14:11:05;;;;;;;9.88;5.43;;;;;;;;;;6240289;22;20216;-91
2021/04/16 14:14:13;;;;;;;5.50;3.63;;;;;;;;;;6222771;22;20183;-90
2021/04/16 14:17:22;;;;;;;11.00;5.93;;;;;;;;;;6221191;23;20174;-91
2021/04/16 14:20:32;;;;;;;7.77;4.20;;;;;;;;;;6221251;23;20259;-91
2021/04/16 14:23:39;;;;;;;5.25;3.60;;;;;;;;;;6221474;23;20195;-92
2021/04/16 14:26:46;;;;;;;5.47;3.53;;;;;;;;;;6221225;22;20167;-92
2021/04/16 14:29:54;;;;;;;5.50;3.50;;;;;;;;;;6220108;22;20247;-90
2021/04/16 14:32:59;;;;;;;8.63;4.00;;;;;;;;;;6220388;23;20238;-91
2021/04/16 19:38:22;;;;;;;11.57;5.50;;;;;;;;;;6203503;22;20223;-89
2021/04/16 19:41:30;;;;;;;10.23;5.87;;;;;;;;;;6213134;23;20195;-90
2021/04/16 19:44:41;;;;;;;8.67;5.30;;;;;;;;;;6214044;22;20187;-88
2021/04/16 20:18:23;;;;;;;11.40;6.20;;;;;;;;;;6206537;23;20166;-88
2021/04/16 20:21:30;;;;;;;12.80;6.10;;;;;;;;;;6210342;23;20168;-89
2021/04/16 20:24:35;;;;;;;14.43;7.27;;;;;;;;;;6207260;23;20172;-88
2021/04/16 20:27:42;;;;;;;14.17;6.20;;;;;;;;;;6209503;23;20171;-90
2021/04/16 20:30:48;;;;;;;19.93;9.27;;;;;;;;;;6209243;23;20171;-90
2021/04/16 20:33:53;;;;;;;20.77;9.90;;;;;;;;;;6208744;23;20191;-91
2021/04/16 20:37:01;;;;;;;17.47;8.53;;;;;;;;;;6209133;23;20174;-90
2021/04/16 20:40:09;;;;;;;11.23;6.50;;;;;;;;;;6206777;23;20175;-90
2021/04/16 20:43:16;;;;;;;10.30;5.90;;;;;;;;;;6209105;23;20190;-89
2021/04/16 20:46:23;;;;;;;12.60;6.13;;;;;;;;;;6210614;23;20207;-90
2021/04/16 20:49:30;;;;;;;11.80;6.00;;;;;;;;;;6210316;23;20215;-91
2021/04/16 20:52:39;;;;;;;27.60;10.93;;;;;;;;;;6210242;23;20194;-90
2021/04/16 20:55:46;;;;;;;11.90;5.90;;;;;;;;;;6210195;23;20213;-88
2021/04/16 20:58:54;;;;;;;10.30;5.50;;;;;;;;;;6209264;23;20216;-91
2021/04/16 21:02:00;;;;;;;13.43;6.67;;;;;;;;;;6208963;23;20385;-90
2021/04/16 21:05:05;;;;;;;12.67;4.73;;;;;;;;;;6208498;23;20227;-90
2021/04/16 21:08:16;;;;;;;11.00;4.73;;;;;;;;;;6209473;23;20167;-90
2021/04/16 21:11:22;;;;;;;8.30;4.47;;;;;;;;;;6207977;23;20175;-90
2021/04/16 21:14:29;;;;;;;9.20;4.93;;;;;;;;;;6207237;23;20213;-89
2021/04/16 21:17:35;;;;;;;9.87;5.23;;;;;;;;;;6207202;23;20554;-88
2021/04/16 21:20:42;;;;;;;10.57;5.37;;;;;;;;;;6207055;23;20263;-88
2021/04/16 21:23:48;;;;;;;14.77;5.90;;;;;;;;;;6209033;23;20206;-89
2021/04/16 21:26:55;;;;;;;13.17;5.93;;;;;;;;;;6206661;23;20171;-89
2021/04/16 21:30:01;;;;;;;9.53;5.30;;;;;;;;;;6207413;23;20155;-89
2021/04/16 21:33:08;;;;;;;9.93;5.60;;;;;;;;;;6210504;23;20190;-88
2021/04/16 21:36:20;;;;;;;10.17;5.33;;;;;;;;;;6208400;23;20167;-90
2021/04/16 21:39:25;;;;;;;13.97;5.87;;;;;;;;;;6209091;23;20207;-90
2021/04/16 21:42:31;;;;;;;9.63;5.83;;;;;;;;;;6208893;23;20167;-90
2021/04/16 21:45:39;;;;;;;15.47;5.80;;;;;;;;;;6207289;23;20253;-90
2021/04/16 21:48:45;;;;;;;11.83;6.27;;;;;;;;;;6206960;23;20179;-90
2021/04/16 21:51:56;;;;;;;12.47;6.43;;;;;;;;;;6207455;23;20233;-90
2021/04/16 21:55:03;;;;;;;13.77;6.40;;;;;;;;;;6206113;23;20240;-91
2021/04/16 21:58:07;;;;;;;10.73;5.67;;;;;;;;;;6206259;23;20167;-91
2021/04/16 22:01:19;;;;;;;12.83;6.57;;;;;;;;;;6204136;23;20217;-91
2021/04/16 22:04:24;;;;;;;9.07;5.40;;;;;;;;;;6224828;23;20673;-90
2021/04/16 22:07:33;;;;;;;13.27;6.80;;;;;;;;;;6206318;23;20256;-91
2021/04/16 22:10:40;;;;;;;15.40;6.93;;;;;;;;;;6205989;23;20174;-89
2021/04/16 22:13:46;;;;;;;10.60;5.77;;;;;;;;;;6206490;23;20172;-90
2021/04/16 22:16:53;;;;;;;10.20;5.83;;;;;;;;;;6206661;23;20170;-89
2021/04/16 22:19:57;;;;;;;10.90;6.33;;;;;;;;;;6207009;23;20191;-90
2021/04/16 22:23:05;;;;;;;11.90;6.07;;;;;;;;;;6206346;23;20614;-90
2021/04/16 22:26:10;;;;;;;11.50;5.53;;;;;;;;;;6206927;23;20166;-90
2021/04/16 22:29:18;;;;;;;9.33;5.00;;;;;;;;;;6207086;23;20190;-91
2021/04/16 22:32:25;;;;;;;11.33;6.17;;;;;;;;;;6209024;23;20187;-90
2021/04/16 22:35:32;;;;;;;10.83;5.50;;;;;;;;;;6209044;23;20220;-89
2021/04/16 22:38:37;;;;;;;10.37;5.70;;;;;;;;;;6210020;23;20194;-88
2021/04/16 22:41:43;;;;;;;11.63;5.53;;;;;;;;;;6208289;23;20183;-89
2021/04/16 22:44:49;;;;;;;13.97;6.50;;;;;;;;;;6208566;23;20175;-89
2021/04/16 22:47:55;;;;;;;10.63;5.10;;;;;;;;;;6208090;23;20171;-90
2021/04/16 22:51:00;;;;;;;9.63;5.70;;;;;;;;;;6209312;23;20218;-89
2021/04/16 22:54:05;;;;;;;12.63;6.57;;;;;;;;;;6207293;23;20166;-89
2021/04/16 22:57:13;;;;;;;11.60;6.37;;;;;;;;;;6207253;23;20155;-89
2021/04/16 23:00:20;;;;;;;16.80;6.83;;;;;;;;;;6208088;23;20175;-88
2021/04/16 23:03:30;;;;;;;11.40;6.47;;;;;;;;;;6207697;23;20211;-89
2021/04/16 23:06:37;;;;;;;10.17;5.70;;;;;;;;;;6207029;23;20237;-89
2021/04/16 23:09:42;;;;;;;10.67;5.93;;;;;;;;;;6208154;23;20219;-89
2021/04/16 23:12:47;;;;;;;11.30;5.40;;;;;;;;;;6207663;23;20250;-90
2021/04/16 23:15:51;;;;;;;10.63;5.53;;;;;;;;;;6207149;23;20170;-90
2021/04/16 23:18:57;;;;;;;11.20;5.50;;;;;;;;;;6208190;23;20179;-90
2021/04/16 23:22:04;;;;;;;12.90;6.37;;;;;;;;;;6207082;23;20213;-90
2021/04/16 23:25:10;;;;;;;9.53;5.73;;;;;;;;;;6207387;23;20166;-90
2021/04/16 23:28:16;;;;;;;10.73;5.87;;;;;;;;;;6209786;23;20171;-90
2021/04/16 23:31:26;;;;;;;10.27;5.33;;;;;;;;;;6209463;23;20174;-91
2021/04/16 23:34:31;;;;;;;8.60;5.57;;;;;;;;;;6210412;23;20220;-90
2021/04/16 23:37:39;;;;;;;12.30;5.77;;;;;;;;;;6210580;23;20220;-90
2021/04/16 23:40:44;;;;;;;10.63;6.00;;;;;;;;;;6207042;23;20240;-89
2021/04/16 23:43:49;;;;;;;12.50;6.30;;;;;;;;;;6207471;23;20204;-90
2021/04/16 23:46:54;;;;;;;9.50;5.40;;;;;;;;;;6207095;23;20194;-88
2021/04/16 23:49:59;;;;;;;11.00;5.07;;;;;;;;;;6205982;23;20171;-89
2021/04/16 23:53:06;;;;;;;13.47;5.70;;;;;;;;;;6206893;23;20214;-90
2021/04/16 23:56:10;;;;;;;12.10;6.07;;;;;;;;;;6206435;23;20244;-90
2021/04/16 23:59:16;;;;;;;13.80;6.00;;;;;;;;;;6206579;23;20194;-89
